Terminal Aerodrome Forecast
Issued by NWS Rapid City, SD

Home | Current Version | Previous Version | Text Only | Print | Product List | Glossary Off
Versions: 1 2 3 4 5 6 7 8 9 10 11 12 13 14 15

000
FTUS43 KUNR 070500
TAFRAP
TAF
KRAP 070521Z 0706/0806 VRB05KT P6SM SCT150
     FM070900 33015KT P6SM BKN100
      TEMPO 0710/0712 -TSRA BKN060CB=

USA.gov is the U.S. government's official web portal to all federal, state and local government web resources and services.